createdAt,value
2018-08-09T00:01:18.441Z,3.73
2018-08-09T00:03:54.219Z,3.80
2018-08-09T00:06:23.833Z,4.53
2018-08-09T00:08:53.673Z,3.70
2018-08-09T00:11:23.250Z,3.87
2018-08-09T00:13:53.055Z,3.67
2018-08-09T00:16:38.806Z,3.77
2018-08-09T00:19:08.254Z,3.60
2018-08-09T00:21:38.702Z,3.50
2018-08-09T00:24:08.698Z,3.60
2018-08-09T00:26:55.892Z,3.90
2018-08-09T00:29:25.784Z,3.73
2018-08-09T00:31:55.769Z,3.33
2018-08-09T00:34:25.850Z,3.90
2018-08-09T00:36:55.298Z,3.70
2018-08-09T00:39:40.256Z,3.80
2018-08-09T00:42:15.747Z,3.57
2018-08-09T00:44:45.569Z,3.80
2018-08-09T00:47:15.962Z,4.27
2018-08-09T00:49:55.354Z,4.00
2018-08-09T00:52:33.424Z,4.60
2018-08-09T00:55:03.426Z,4.50
2018-08-09T00:57:33.000Z,4.03
2018-08-09T01:00:02.638Z,4.30
2018-08-09T01:02:32.647Z,4.10
2018-08-09T01:05:10.073Z,4.20
2018-08-09T01:07:41.183Z,3.63
2018-08-09T01:10:10.753Z,3.87
2018-08-09T01:12:47.329Z,4.17
2018-08-09T01:15:17.456Z,3.93
2018-08-09T01:17:56.073Z,3.57
2018-08-09T01:20:31.568Z,4.93
2018-08-09T01:23:10.218Z,4.13
2018-08-09T01:25:40.507Z,4.20
2018-08-09T01:28:10.282Z,4.53
2018-08-09T01:30:40.395Z,3.93
2018-08-09T01:33:23.707Z,3.93
2018-08-09T01:35:53.340Z,4.23
2018-08-09T01:38:27.573Z,3.77
2018-08-09T01:41:06.357Z,4.17
2018-08-09T01:43:51.373Z,4.30
2018-08-09T01:46:20.869Z,4.00
2018-08-09T01:48:50.790Z,4.53
2018-08-09T01:51:27.563Z,4.87
2018-08-09T01:53:56.978Z,4.60
2018-08-09T01:56:26.873Z,4.30
2018-08-09T01:58:56.469Z,4.20
2018-08-09T02:01:25.876Z,3.90
2018-08-09T02:04:08.538Z,4.43
2018-08-09T02:06:45.336Z,3.93
2018-08-09T02:09:24.648Z,4.60
2018-08-09T02:12:00.451Z,4.20
2018-08-09T02:14:30.194Z,4.57
2018-08-09T02:17:05.803Z,3.80
2018-08-09T02:19:37.772Z,4.00
2018-08-09T02:22:11.595Z,4.17
2018-08-09T02:24:40.973Z,4.50
2018-08-09T02:27:10.674Z,4.00
2018-08-09T02:29:48.698Z,4.50
2018-08-09T02:32:18.133Z,5.30
2018-08-09T02:34:54.183Z,4.33
2018-08-09T02:37:30.424Z,4.57
2018-08-09T02:39:59.853Z,4.60
2018-08-09T02:42:31.456Z,4.63
2018-08-09T02:45:01.109Z,4.33
2018-08-09T02:47:30.450Z,4.20
2018-08-09T02:50:06.660Z,5.10
2018-08-09T02:52:36.391Z,4.10
2018-08-09T02:55:12.564Z,4.20
2018-08-09T02:57:41.967Z,6.20
2018-08-09T03:00:11.333Z,4.60
2018-08-09T03:02:40.725Z,5.07
2018-08-09T03:05:18.955Z,5.17
2018-08-09T03:07:55.233Z,4.97
2018-08-09T03:10:30.379Z,5.30
2018-08-09T03:13:06.027Z,5.07
2018-08-09T03:15:35.735Z,4.70
2018-08-09T03:18:05.137Z,5.07
2018-08-09T03:20:42.180Z,5.10
2018-08-09T03:23:11.820Z,5.67
2018-08-09T03:25:48.003Z,5.90
2018-08-09T03:28:22.756Z,6.13
2018-08-09T03:30:59.013Z,6.50
2018-08-09T03:33:33.720Z,5.37
2018-08-09T03:36:03.190Z,5.70
2018-08-09T03:38:40.394Z,5.60
2018-08-09T03:41:15.127Z,5.40
2018-08-09T03:43:51.437Z,5.60
2018-08-09T03:46:21.183Z,6.07
2018-08-09T03:48:58.998Z,5.00
2018-08-09T03:51:28.749Z,5.80
2018-08-09T03:53:58.258Z,5.33
2018-08-09T03:56:27.683Z,7.00
2018-08-09T03:59:03.348Z,5.63
2018-08-09T04:01:38.367Z,5.60
2018-08-09T04:04:15.506Z,5.70
2018-08-09T04:06:44.993Z,5.40
2018-08-09T04:09:19.641Z,5.67
2018-08-09T04:11:49.151Z,5.53
2018-08-09T04:14:18.566Z,6.07
2018-08-09T04:16:48.083Z,5.60
2018-08-09T04:19:17.537Z,6.20
2018-08-09T04:21:47.277Z,6.03
2018-08-09T04:24:23.704Z,5.87
2018-08-09T04:27:08.750Z,6.50
2018-08-09T04:29:38.587Z,6.27
2018-08-09T04:32:13.606Z,5.70
2018-08-09T04:34:43.006Z,6.50
2018-08-09T04:37:12.721Z,6.43
2018-08-09T04:39:42.383Z,6.60
2018-08-09T04:42:21.033Z,6.37
2018-08-09T04:44:56.197Z,6.50
2018-08-09T04:47:25.576Z,6.50
2018-08-09T04:49:54.950Z,6.90
2018-08-09T04:52:32.269Z,7.10
2018-08-09T04:55:01.636Z,7.17
2018-08-09T04:57:31.338Z,6.70
2018-08-09T05:00:12.645Z,10.17
2018-08-09T05:02:42.400Z,6.43
2018-08-09T05:05:11.936Z,6.60
2018-08-09T05:07:53.232Z,6.83
2018-08-09T05:10:23.071Z,6.20
2018-08-09T05:13:05.640Z,5.87
2018-08-09T05:15:40.981Z,6.30
2018-08-09T05:18:10.393Z,7.30
2018-08-09T05:20:39.812Z,6.20
2018-08-09T05:23:09.642Z,7.23
2018-08-09T05:25:39.149Z,6.93
2018-08-09T05:28:21.804Z,7.33
2018-08-09T05:30:58.344Z,7.47
2018-08-09T05:33:27.724Z,6.80
2018-08-09T05:36:04.628Z,7.27
2018-08-09T05:38:34.333Z,7.63
2018-08-09T05:41:11.131Z,7.47
2018-08-09T05:43:40.628Z,7.20
2018-08-09T05:46:16.552Z,8.77
2018-08-09T05:48:45.948Z,6.70
2018-08-09T05:51:15.677Z,7.23
2018-08-09T05:53:45.243Z,6.47
2018-08-09T05:56:26.435Z,7.50
2018-08-09T05:59:02.782Z,16.90
2018-08-09T06:01:32.202Z,7.37
2018-08-09T06:04:01.656Z,6.80
2018-08-09T06:06:40.441Z,7.80
2018-08-09T06:09:11.700Z,7.00
2018-08-09T06:11:41.155Z,7.97
2018-08-09T06:14:12.813Z,7.60
2018-08-09T06:16:55.529Z,6.77
2018-08-09T06:19:24.925Z,8.33
2018-08-09T06:21:55.169Z,7.50
2018-08-09T06:24:24.581Z,8.47
2018-08-09T06:26:54.279Z,8.00
2018-08-09T06:29:33.714Z,7.50
2018-08-09T06:32:03.401Z,8.30
2018-08-09T06:34:32.841Z,7.70
2018-08-09T06:37:09.381Z,7.93
2018-08-09T06:39:47.017Z,9.10
2018-08-09T06:42:25.488Z,7.67
2018-08-09T06:45:04.766Z,7.60
2018-08-09T06:50:10.845Z,9.17
2018-08-09T06:52:40.346Z,8.40
2018-08-09T06:55:17.616Z,8.30
2018-08-09T06:57:52.928Z,8.03
2018-08-09T07:00:22.458Z,8.90
2018-08-09T07:02:52.005Z,9.50
2018-08-09T07:05:21.783Z,9.60
2018-08-09T07:08:00.436Z,9.47
2018-08-09T07:10:30.352Z,10.40
2018-08-09T07:12:59.812Z,9.33
2018-08-09T07:15:29.239Z,10.20
2018-08-09T07:17:58.679Z,10.33
2018-08-09T07:20:37.569Z,9.97
2018-08-09T07:23:12.294Z,10.13
2018-08-09T07:25:42.137Z,10.60
2018-08-09T07:28:11.844Z,10.50
2018-08-09T07:30:41.351Z,10.53
2018-08-09T07:33:22.974Z,10.40
2018-08-09T07:36:00.697Z,10.30
2018-08-09T07:38:30.638Z,9.87
2018-08-09T07:41:00.342Z,10.07
2018-08-09T07:43:29.906Z,11.50
2018-08-09T07:46:00.444Z,11.10
2018-08-09T07:55:43.804Z,10.57
2018-08-09T07:58:14.021Z,11.63
2018-08-09T08:01:04.019Z,11.00
2018-08-09T08:03:40.138Z,12.27
2018-08-09T08:06:10.125Z,10.20
2018-08-09T08:08:39.751Z,12.20
2018-08-09T08:11:15.558Z,10.77
2018-08-09T08:13:45.582Z,10.77
2018-08-09T08:16:25.526Z,11.73
2018-08-09T08:19:01.980Z,14.10
2018-08-09T08:21:37.126Z,13.27
2018-08-09T08:24:07.202Z,12.20
2018-08-09T08:26:37.205Z,11.20
2018-08-09T08:29:06.802Z,11.77
2018-08-09T08:31:45.215Z,12.33
2018-08-09T08:34:14.872Z,12.20
2018-08-09T08:36:44.395Z,12.30
2018-08-09T08:39:21.955Z,13.07
2018-08-09T08:41:51.661Z,12.10
2018-08-09T08:44:21.441Z,10.50
2018-08-09T08:47:00.694Z,11.00
2018-08-09T08:49:37.774Z,11.10
2018-08-09T08:52:12.668Z,13.30
2018-08-09T08:54:42.635Z,14.13
2018-08-09T08:57:13.974Z,10.73
2018-08-09T08:59:48.511Z,10.10
2018-08-09T09:02:18.537Z,10.20
2018-08-09T09:04:48.060Z,11.00
2018-08-09T09:07:17.636Z,10.00
2018-08-09T09:09:57.311Z,9.63
2018-08-09T09:12:41.495Z,10.30
2018-08-09T09:15:13.558Z,9.93
2018-08-09T09:17:43.739Z,10.87
2018-08-09T09:20:22.127Z,9.90
2018-08-09T09:22:52.031Z,10.20
2018-08-09T09:25:28.336Z,9.77
2018-08-09T09:27:57.925Z,9.90
2018-08-09T09:30:37.070Z,10.20
2018-08-09T09:33:07.014Z,8.83
2018-08-09T09:35:47.446Z,8.87
2018-08-09T09:38:17.280Z,10.60
2018-08-09T09:40:53.178Z,9.50
2018-08-09T09:43:23.128Z,9.67
2018-08-09T09:45:52.621Z,9.23
2018-08-09T09:48:22.165Z,9.17
2018-08-09T09:50:51.696Z,8.33
2018-08-09T09:53:29.818Z,9.30
2018-08-09T09:56:08.761Z,8.70
2018-08-09T09:58:38.259Z,8.50
2018-08-09T10:01:19.266Z,9.10
2018-08-09T10:03:48.766Z,8.10
2018-08-09T10:06:25.768Z,8.63
2018-08-09T10:08:55.267Z,8.00
2018-08-09T10:11:24.939Z,8.40
2018-08-09T10:13:54.341Z,8.40
2018-08-09T10:16:23.763Z,7.60
2018-08-09T10:18:53.572Z,8.27
2018-08-09T10:30:20.444Z,8.17
2018-08-09T10:32:50.951Z,9.20
2018-08-09T10:35:21.088Z,8.77
2018-08-09T10:38:06.443Z,8.77
2018-08-09T10:40:36.215Z,8.50
2018-08-09T10:43:05.628Z,8.30
2018-08-09T10:45:35.152Z,8.23
2018-08-09T10:48:04.860Z,8.87
2018-08-09T10:50:34.549Z,8.90
2018-08-09T10:53:03.958Z,8.90
2018-08-09T10:55:45.168Z,9.00
2018-08-09T10:58:23.245Z,7.90
2018-08-09T11:00:53.020Z,8.77
2018-08-09T11:03:22.412Z,8.90
2018-08-09T11:06:01.123Z,9.00
2018-08-09T11:08:40.184Z,8.60
2018-08-09T11:11:14.786Z,9.03
2018-08-09T11:13:45.677Z,8.77
2018-08-09T11:16:15.842Z,8.23
2018-08-09T11:18:45.908Z,7.60
2018-08-09T11:21:15.768Z,8.80
2018-08-09T11:23:54.484Z,7.67
2018-08-09T11:26:24.192Z,8.23
2018-08-09T11:28:53.591Z,8.37
2018-08-09T11:31:30.453Z,8.27
2018-08-09T11:34:14.999Z,7.63
2018-08-09T11:36:49.968Z,8.00
2018-08-09T11:39:19.881Z,7.63
2018-08-09T11:41:49.371Z,7.97
2018-08-09T11:44:18.746Z,8.60
2018-08-09T11:46:48.565Z,8.73
2018-08-09T11:49:18.244Z,8.17
2018-08-09T11:51:47.758Z,8.20
2018-08-09T11:54:17.671Z,8.13
2018-08-09T11:56:47.248Z,8.07
2018-08-09T11:59:23.452Z,8.30
2018-08-09T12:01:53.284Z,7.90
2018-08-09T12:04:22.791Z,7.70
2018-08-09T12:06:52.244Z,7.53
2018-08-09T12:09:22.077Z,8.73
2018-08-09T12:12:07.268Z,8.33
2018-08-09T12:14:37.086Z,8.53
2018-08-09T12:17:06.601Z,7.40
2018-08-09T12:19:36.178Z,8.47
2018-08-09T12:22:05.839Z,9.13
2018-08-09T12:24:42.702Z,8.83
2018-08-09T12:27:18.146Z,8.57
2018-08-09T12:29:47.615Z,8.67
2018-08-09T12:32:17.188Z,11.63
2018-08-09T12:34:46.936Z,10.10
2018-08-09T12:43:03.958Z,8.67
2018-08-09T12:51:22.893Z,7.70
2018-08-09T12:54:10.706Z,7.10
2018-08-09T13:00:20.480Z,6.03
2018-08-09T13:02:52.818Z,7.20
2018-08-09T13:05:28.198Z,6.73
2018-08-09T13:07:58.912Z,6.70
2018-08-09T13:10:56.581Z,6.43
2018-08-09T13:13:39.122Z,7.70
2018-08-09T13:19:15.044Z,9.37
2018-08-09T13:24:42.418Z,7.53
2018-08-09T13:27:28.942Z,8.13
2018-08-09T13:30:23.554Z,8.03
2018-08-09T13:42:29.334Z,8.73
2018-08-09T13:57:25.599Z,7.00
2018-08-09T14:00:09.520Z,7.20
2018-08-09T14:02:54.526Z,6.97
2018-08-09T14:05:25.377Z,7.20
2018-08-09T14:08:25.291Z,7.07
2018-08-09T14:11:11.705Z,6.70
2018-08-09T14:13:57.085Z,6.40
2018-08-09T14:16:43.344Z,7.47
2018-08-09T14:19:39.653Z,9.80
2018-08-09T14:25:25.849Z,5.70
2018-08-09T14:37:51.561Z,7.23
2018-08-09T14:43:29.930Z,6.77
2018-08-09T14:46:01.079Z,6.03
2018-08-09T15:07:02.476Z,5.23
2018-08-09T15:09:56.684Z,5.90
2018-08-09T15:12:41.295Z,5.70
2018-08-09T15:24:36.017Z,5.50
2018-08-09T15:27:08.058Z,5.80
2018-08-09T15:32:46.811Z,5.93
2018-08-09T15:35:20.065Z,5.70
2018-08-09T15:38:14.856Z,5.07
2018-08-09T15:43:45.792Z,5.07
2018-08-09T15:46:40.567Z,6.23
2018-08-09T15:52:46.358Z,5.57
2018-08-09T15:55:28.903Z,5.97
2018-08-09T15:58:10.363Z,5.63
2018-08-09T16:00:43.072Z,5.57
2018-08-09T16:09:38.859Z,5.80
2018-08-09T16:15:16.225Z,6.60
2018-08-09T16:20:47.499Z,5.03
2018-08-09T16:23:25.030Z,5.07
2018-08-09T16:25:58.582Z,5.30
2018-08-09T16:28:32.247Z,6.00
2018-08-09T16:34:08.443Z,5.10
2018-08-09T16:46:09.617Z,5.03
2018-08-09T16:52:03.161Z,4.30
2018-08-09T16:54:57.133Z,4.50
2018-08-09T16:57:38.954Z,4.37
2018-08-09T17:03:19.026Z,4.23
2018-08-09T17:05:57.594Z,4.80
2018-08-09T17:08:28.538Z,4.10
2018-08-09T17:11:22.413Z,4.50
2018-08-09T17:17:25.083Z,3.60
2018-08-09T17:23:15.700Z,3.57
2018-08-09T17:32:12.248Z,3.60
2018-08-09T17:38:14.314Z,1.97
2018-08-09T17:40:55.906Z,1.90
2018-08-09T17:52:51.066Z,1.57
2018-08-09T18:01:28.743Z,1.70
2018-08-09T18:07:01.261Z,2.10
2018-08-09T18:09:45.677Z,1.70
2018-08-09T18:15:30.064Z,1.70
2018-08-09T18:32:59.227Z,1.73
2018-08-09T18:35:54.855Z,1.40
2018-08-09T18:38:49.632Z,1.80
2018-08-09T18:41:21.220Z,2.30
2018-08-09T18:43:52.207Z,1.90
2018-08-09T18:46:21.755Z,1.57
2018-08-09T18:52:04.726Z,2.07
2018-08-09T19:07:12.155Z,1.70
2018-08-09T19:16:03.211Z,1.97
2018-08-09T19:18:59.421Z,1.90
2018-08-09T19:21:44.848Z,1.87
2018-08-09T19:24:27.208Z,2.13
2018-08-09T19:30:04.143Z,1.70
2018-08-09T19:32:34.904Z,4.80
2018-08-09T19:44:25.549Z,2.23
2018-08-09T19:50:18.980Z,2.00
2018-08-09T19:53:02.353Z,1.70
2018-08-09T19:59:03.852Z,4.00
2018-08-09T20:04:59.700Z,1.80
2018-08-09T20:07:54.109Z,1.53
2018-08-09T20:10:37.185Z,1.80
2018-08-09T20:16:15.200Z,1.93
2018-08-09T20:18:47.204Z,1.77
2018-08-09T20:24:28.819Z,1.73
2018-08-09T20:26:58.661Z,2.10
2018-08-09T20:29:28.091Z,1.57
2018-08-09T20:32:22.715Z,2.03
2018-08-09T20:44:25.554Z,2.00
2018-08-09T20:53:11.618Z,2.10
2018-08-09T20:55:59.430Z,2.63
2018-08-09T20:58:41.815Z,2.33
2018-08-09T21:10:41.683Z,2.00
2018-08-09T21:16:22.459Z,1.50
2018-08-09T21:19:18.205Z,1.70
2018-08-09T21:27:56.692Z,1.20
2018-08-09T21:30:41.768Z,1.23
2018-08-09T21:33:11.474Z,0.70
2018-08-09T21:35:49.633Z,0.70
2018-08-09T21:38:18.751Z,0.83
2018-08-09T21:43:42.421Z,0.73
2018-08-09T21:49:09.582Z,0.60
2018-08-09T22:04:14.218Z,0.73
2018-08-09T22:07:00.994Z,0.60
2018-08-09T22:18:52.912Z,0.60
2018-08-09T22:22:00.667Z,0.60
2018-08-09T22:25:08.438Z,0.63
2018-08-09T22:31:22.691Z,0.60
2018-08-09T22:33:55.186Z,0.70
2018-08-09T22:43:24.637Z,0.60
2018-08-09T22:49:06.147Z,0.60
2018-08-09T22:58:24.315Z,0.90
2018-08-09T23:01:20.891Z,0.80
2018-08-09T23:11:16.710Z,0.80
2018-08-09T23:13:47.452Z,0.93
2018-08-09T23:16:47.311Z,0.70
2018-08-09T23:35:03.234Z,0.73
2018-08-09T23:48:11.805Z,0.60
2018-08-09T23:54:07.907Z,0.87
2018-08-09T23:59:53.530Z,0.90
